aviador You're here:

LFRS Decoded Metar

NANTES in FRANCE
Report Time2017-09-23 21:30:00
UTC Time2017-09-23 21:48:45
Flight Rules vfr VFR
Wind290° at 02 kt
W.Decomp.*RWY 21: 0.3 kt HW 2.0 kt RCW
W.Rank290° ranks 11
Current wind is below 290° avg. (6.9)
Visibility9999 m
Phenomena:N/A
Clouds:N/A
Expected CloudBase > 1,200 ft AGL from Temp-Dew spread
CeilingNone
Temp14°C (ISA -1)
Dew Point11°C (82% RH)
AAT13.6°C
QNH1018 hPa
Density Alt0 ft
Elevation89 ft
Report Wrong Elevation
Raw Report
LFRS 232130Z AUTO 29002KT CAVOK 14/11 Q1018 NOSIG=

Extra information for LFRS:More info

Metar Taf Metar & Taf Last 4 Metars F.Rules Stats Wind Profile Meteogram Temp Stats Airport Information Weather charts Add Link Nearby VenuesMetar ALERT Operation Metar Decoded Social comments